TimeMST,TemperatureF,Dew PointF,Humidity,Sea Level PressureIn,VisibilityMPH,Wind Direction,Wind SpeedMPH,Gust SpeedMPH,PrecipitationIn,Events,Conditions,WindDirDegrees,DateUTC
12:07 AM,19.4,19.4,100,29.73,1.2,ENE,4.6,-,N/A,,Overcast,60,2012-12-27 07:07:00
12:14 AM,19.4,19.4,100,29.73,0.2,NE,4.6,-,N/A,Fog,Light Freezing Fog,50,2012-12-27 07:14:00
12:46 AM,17.6,17.6,100,29.73,0.5,Calm,Calm,-,N/A,Fog,Light Freezing Fog,0,2012-12-27 07:46:00
12:53 AM,19.0,19.0,100,29.83,1.5,Calm,Calm,-,N/A,,Overcast,0,2012-12-27 07:53:00
1:00 AM,19.4,19.4,100,29.73,3.0,Calm,Calm,-,N/A,,Overcast,0,2012-12-27 08:00:00
1:10 AM,17.6,17.6,100,29.74,4.0,Calm,Calm,-,N/A,,Overcast,0,2012-12-27 08:10:00
1:45 AM,19.4,19.4,100,29.74,1.8,Calm,Calm,-,0.00,Snow,Light Snow,0,2012-12-27 08:45:00
1:53 AM,19.9,19.9,100,29.85,2.0,Calm,Calm,-,0.00,Snow,Light Snow,0,2012-12-27 08:53:00
2:02 AM,19.4,19.4,100,29.75,2.0,Calm,Calm,-,0.00,Snow,Light Snow,0,2012-12-27 09:02:00
2:15 AM,19.4,19.4,100,29.75,2.0,Calm,Calm,-,0.00,Snow,Light Snow,0,2012-12-27 09:15:00
2:53 AM,17.1,17.1,100,29.86,3.0,Calm,Calm,-,0.00,,Overcast,0,2012-12-27 09:53:00
3:53 AM,19.9,19.0,96,29.86,2.5,Calm,Calm,-,N/A,,Overcast,0,2012-12-27 10:53:00
4:02 AM,19.4,19.4,100,29.75,1.2,Calm,Calm,-,N/A,,Overcast,0,2012-12-27 11:02:00
4:28 AM,21.2,21.2,100,29.75,3.0,NNE,4.6,-,N/A,,Overcast,20,2012-12-27 11:28:00
4:53 AM,21.0,21.0,100,29.85,6.0,NNW,3.5,-,N/A,,Overcast,340,2012-12-27 11:53:00
5:01 AM,21.2,21.2,100,29.75,8.0,NNW,3.5,-,N/A,,Overcast,330,2012-12-27 12:01:00
5:53 AM,21.0,21.0,100,29.86,4.0,East,4.6,-,0.00,Snow,Light Snow,90,2012-12-27 12:53:00
6:00 AM,21.2,21.2,100,29.76,2.5,East,5.8,-,0.00,Snow,Light Snow,80,2012-12-27 13:00:00
6:14 AM,19.4,19.4,100,29.76,3.0,ENE,4.6,-,0.00,,Overcast,60,2012-12-27 13:14:00
6:53 AM,19.9,19.9,100,29.87,3.0,ESE,5.8,-,0.00,,Overcast,110,2012-12-27 13:53:00
7:28 AM,19.4,19.4,100,29.77,2.5,Calm,Calm,-,0.00,Snow,Light Snow,0,2012-12-27 14:28:00
7:39 AM,17.6,17.6,100,29.77,1.8,Calm,Calm,-,0.00,Snow,Light Snow,0,2012-12-27 14:39:00
7:42 AM,17.6,17.6,100,29.77,2.5,Calm,Calm,-,0.00,Snow,Light Snow,0,2012-12-27 14:42:00
7:53 AM,17.1,17.1,100,29.88,2.5,Calm,Calm,-,0.00,,Overcast,0,2012-12-27 14:53:00
8:00 AM,17.6,17.6,100,29.77,4.0,Calm,Calm,-,N/A,,Overcast,0,2012-12-27 15:00:00
8:34 AM,19.4,19.4,100,29.78,2.0,Calm,Calm,-,N/A,,Overcast,0,2012-12-27 15:34:00
8:51 AM,19.4,19.4,100,29.78,2.0,Calm,Calm,-,N/A,,Overcast,0,2012-12-27 15:51:00
8:53 AM,19.9,19.9,100,29.89,2.0,Calm,Calm,-,N/A,,Overcast,0,2012-12-27 15:53:00
9:53 AM,21.9,21.9,100,29.91,2.5,Calm,Calm,-,N/A,,Overcast,0,2012-12-27 16:53:00
10:53 AM,23.0,23.0,100,29.91,2.5,Calm,Calm,-,N/A,,Overcast,0,2012-12-27 17:53:00
11:51 AM,24.8,23.0,93,29.78,5.0,Calm,Calm,-,N/A,,Overcast,0,2012-12-27 18:51:00
11:53 AM,25.0,23.0,92,29.87,5.0,Calm,Calm,-,N/A,,Overcast,0,2012-12-27 18:53:00
12:01 PM,24.8,23.0,93,29.78,8.0,Calm,Calm,-,N/A,,Overcast,0,2012-12-27 19:01:00
12:53 PM,26.1,23.0,88,29.86,5.0,Calm,Calm,-,N/A,,Overcast,0,2012-12-27 19:53:00
1:00 PM,26.6,24.8,93,29.76,9.0,Calm,Calm,-,N/A,,Overcast,0,2012-12-27 20:00:00
1:53 PM,27.0,23.0,85,29.85,10.0,Calm,Calm,-,N/A,,Mostly Cloudy,0,2012-12-27 20:53:00
2:53 PM,25.0,23.0,92,29.88,10.0,NW,8.1,-,N/A,,Overcast,320,2012-12-27 21:53:00
3:44 PM,24.8,21.2,86,29.79,8.0,NW,6.9,-,N/A,,Overcast,320,2012-12-27 22:44:00
3:53 PM,24.1,21.9,91,29.89,7.0,NNW,5.8,-,N/A,,Overcast,330,2012-12-27 22:53:00
4:34 PM,24.8,23.0,93,29.81,2.5,WNW,5.8,-,0.00,Snow,Light Snow,290,2012-12-27 23:34:00
4:53 PM,24.8,24.8,100,29.81,2.5,WNW,4.6,-,N/A,Snow,Light Snow,290,2012-12-27 23:53:00
5:10 PM,24.8,24.8,100,29.82,3.0,West,4.6,-,0.00,Snow,Light Snow,280,2012-12-28 00:10:00
5:39 PM,24.8,24.8,100,29.83,2.0,WNW,3.5,-,0.00,Snow,Light Snow,290,2012-12-28 00:39:00
5:53 PM,24.1,24.1,100,29.93,2.0,Calm,Calm,-,0.01,Snow,Light Snow,0,2012-12-28 00:53:00
6:13 PM,23.0,23.0,100,29.84,3.0,WNW,3.5,-,0.00,Snow,Light Snow,300,2012-12-28 01:13:00
6:53 PM,24.1,24.1,100,29.96,6.0,Calm,Calm,-,0.00,Snow,Light Snow,0,2012-12-28 01:53:00
7:53 PM,21.9,21.9,100,29.99,4.0,West,5.8,-,0.00,,Overcast,270,2012-12-28 02:53:00
8:03 PM,21.2,21.2,100,29.88,5.0,WNW,3.5,-,N/A,,Overcast,290,2012-12-28 03:03:00
8:24 PM,19.4,19.4,100,29.89,2.5,NW,4.6,-,0.00,Snow,Light Snow,320,2012-12-28 03:24:00
8:36 PM,19.4,19.4,100,29.89,4.0,NNW,5.8,-,0.00,Snow,Light Snow,340,2012-12-28 03:36:00
8:53 PM,19.0,19.0,100,30.01,10.0,NNW,6.9,-,0.00,,Mostly Cloudy,340,2012-12-28 03:53:00
9:53 PM,21.0,19.9,96,30.02,10.0,North,8.1,-,N/A,,Mostly Cloudy,350,2012-12-28 04:53:00
10:53 PM,19.9,19.9,100,30.04,9.0,North,12.7,-,N/A,,Partly Cloudy,360,2012-12-28 05:53:00
11:01 PM,17.6,17.6,100,29.94,2.5,NNE,11.5,-,N/A,,Scattered Clouds,20,2012-12-28 06:01:00
11:13 PM,17.6,17.6,100,29.94,10.0,NNE,10.4,-,N/A,,Partly Cloudy,20,2012-12-28 06:13:00
11:48 PM,12.2,12.2,100,29.95,1.8,WNW,4.6,-,N/A,,Mostly Cloudy,300,2012-12-28 06:48:00
11:50 PM,12.2,12.2,100,29.95,0.8,WNW,4.6,-,N/A,,Mostly Cloudy,300,2012-12-28 06:50:00
11:53 PM,12.0,12.0,100,30.08,0.2,NW,3.5,-,N/A,Fog,Light Freezing Fog,310,2012-12-28 06:53:00